Monday, December 22, 2014, 12:41 PM EST

KMUI, Muir Army Air Field / Indiantown

Location: Jonestown, PA, United States Lat: 40.433
Local Time: 12:41 PM EST (17:41 GMT) Lon: -76.567
Time Zone: US/Eastern Elev: 488 ft

Show me the last for .
Show Decoded

2014-12-22 10:30 METAR KMUI 221530Z AUTO 08008KT 10SM SCT017 OVC042 00/M03 A3030 RMK AO2 =
2014-12-22 10:06 METAR KMUI 221506Z AUTO 11005KT 10SM BKN018 OVC045 00/M03 A3031 RMK AO2 CIG
                 018V045 BKN V FEW PRESFR =
2014-12-22 09:58 METAR KMUI 221458Z AUTO VRB05KT 10SM FEW018 BKN045 00/M03 A3033 RMK AO2 SLP280
                 T00001033 53005 =
2014-12-22 09:16 METAR KMUI 221416Z AUTO 06005KT 10SM SCT021 M01/M04 A3030 RMK AO2 =
2014-12-22 08:58 METAR KMUI 221358Z AUTO 08002KT 10SM OVC021 M02/M04 A3031 RMK AO2 SLP274
                 T10251045 =
2014-12-22 07:58 METAR KMUI 221258Z AUTO 06001KT 10SM OVC021 M06/M07 A3031 RMK AO2 SLP275
                 T10601075 =
2014-12-22 06:58 METAR KMUI 221158Z AUTO 00000KT 10SM OVC023 M06/M08 A3031 RMK AO2 SLP274
                 T10631079 11053 21086 55000 =
2014-12-22 05:58 METAR KMUI 221058Z AUTO 27002KT 10SM BKN023 M06/M08 A3030 RMK AO2 SLP270
                 T10641080 =
2014-12-22 05:46 METAR KMUI 221046Z AUTO 25002KT 10SM BKN022 M07/M08 A3030 RMK AO2 BKN V FEW =
2014-12-22 04:58 METAR KMUI 220958Z AUTO 00000KT 10SM CLR M07/M08 A3029 RMK AO2 SLP267 T10711083
                 =
2014-12-22 03:58 METAR KMUI 220858Z AUTO 00000KT 10SM CLR M08/M09 A3031 RMK AO2 SLP274 T10771089
                 50001 =
2014-12-22 02:58 METAR KMUI 220758Z AUTO 00000KT 10SM CLR M07/M08 A3032 RMK AO2 SLP277 T10681081
                 =
2014-12-22 01:58 METAR KMUI 220658Z AUTO 00000KT 10SM CLR M07/M08 A3032 RMK AO2 SLP277 T10671079
                 =
2014-12-22 00:58 METAR KMUI 220558Z AUTO 01001KT 10SM CLR M07/M08 A3031 RMK AO2 SLP274 T10711083
                 11023 21071 58006 =
2014-12-21 23:58 METAR KMUI 220458Z AUTO 02002KT 10SM CLR M07/M08 A3032 RMK AO2 SLP277 T10681078
                 400061069 =
2014-12-21 22:58 METAR KMUI 220358Z AUTO 00000KT 10SM CLR M06/M08 A3034 RMK AO2 SLP284 T10641076
                 =
2014-12-21 21:58 METAR KMUI 220258Z AUTO 35001KT 10SM CLR M05/M07 A3033 RMK AO2 SLP280 T10511069
                 55002 =
2014-12-21 20:58 METAR KMUI 220158Z AUTO VRB02KT 10SM CLR M05/M07 A3032 RMK AO2 SLP277 T10501067
                 =
2014-12-21 19:58 METAR KMUI 220058Z AUTO 03002KT 10SM CLR M04/M07 A3033 RMK AO2 SLP280 T10441066
                 =
2014-12-21 18:58 METAR KMUI 212358Z AUTO 25002KT 10SM CLR M03/M07 A3033 RMK AO2 SLP280 T10301067
                 10006 21035 52009 =
2014-12-21 17:58 METAR KMUI 212258Z AUTO 00000KT 10SM CLR M01/M06 A3032 RMK AO2 SLP276 T10081062
                 =
2014-12-21 16:58 METAR KMUI 212158Z AUTO 31001KT 10SM FEW025 00/M06 A3031 RMK AO2 SLP272
                 T10051057 =
2014-12-21 16:44 METAR KMUI 212144Z AUTO VRB03KT 10SM SCT025 00/M06 A3031 RMK AO2 =
2014-12-21 15:58 METAR KMUI 212058Z AUTO 01004KT 10SM OVC025 00/M05 A3030 RMK AO2 SLP269
                 T00001055 55002 =
2014-12-21 14:58 METAR KMUI 211958Z AUTO 03004KT 10SM OVC025 00/M05 A3029 RMK AO2 SLP266
                 T00031055 =
2014-12-21 13:58 METAR KMUI 211858Z AUTO VRB03KT 10SM OVC025 01/M05 A3030 RMK AO2 SLP269
                 T00061054 =
2014-12-21 12:58 METAR KMUI 211758Z AUTO 31006KT 10SM OVC026 00/M06 A3031 RMK AO2 SLP272
                 T00041056 10005 21016 58012 =

Support USWX by starting your Amazon purchase here.